sensor_id;sensor_type;location;lat;lon;timestamp;temperature;humidity
254;DHT22;590;48.772;8.846;2023-09-12T00:00:50;18.50;78.30
254;DHT22;590;48.772;8.846;2023-09-12T00:03:19;18.50;78.20
254;DHT22;590;48.772;8.846;2023-09-12T00:05:52;18.50;77.80
254;DHT22;590;48.772;8.846;2023-09-12T00:08:20;18.50;78.80
254;DHT22;590;48.772;8.846;2023-09-12T00:10:58;18.50;79.00
254;DHT22;590;48.772;8.846;2023-09-12T00:13:27;18.50;78.00
254;DHT22;590;48.772;8.846;2023-09-12T00:15:55;18.40;77.70
254;DHT22;590;48.772;8.846;2023-09-12T00:18:24;18.30;76.80
254;DHT22;590;48.772;8.846;2023-09-12T00:20:52;18.30;75.90
254;DHT22;590;48.772;8.846;2023-09-12T00:23:21;18.20;76.60
254;DHT22;590;48.772;8.846;2023-09-12T00:25:50;18.20;77.60
254;DHT22;590;48.772;8.846;2023-09-12T00:28:18;18.10;77.50
254;DHT22;590;48.772;8.846;2023-09-12T00:30:48;18.10;77.80
254;DHT22;590;48.772;8.846;2023-09-12T00:33:16;18.00;78.20
254;DHT22;590;48.772;8.846;2023-09-12T00:35:44;18.00;79.10
254;DHT22;590;48.772;8.846;2023-09-12T00:38:12;18.00;80.50
254;DHT22;590;48.772;8.846;2023-09-12T00:40:40;18.10;81.10
254;DHT22;590;48.772;8.846;2023-09-12T00:43:08;18.10;81.30
254;DHT22;590;48.772;8.846;2023-09-12T00:45:37;18.10;81.40
254;DHT22;590;48.772;8.846;2023-09-12T00:48:07;18.10;81.20
254;DHT22;590;48.772;8.846;2023-09-12T00:50:37;18.10;81.80
254;DHT22;590;48.772;8.846;2023-09-12T00:53:05;18.00;80.80
254;DHT22;590;48.772;8.846;2023-09-12T00:55:36;18.00;80.70
254;DHT22;590;48.772;8.846;2023-09-12T00:58:06;17.90;80.30
254;DHT22;590;48.772;8.846;2023-09-12T01:00:35;17.90;81.00
254;DHT22;590;48.772;8.846;2023-09-12T01:03:04;17.90;81.70
254;DHT22;590;48.772;8.846;2023-09-12T01:05:33;17.90;81.10
254;DHT22;590;48.772;8.846;2023-09-12T01:08:03;17.90;80.30
254;DHT22;590;48.772;8.846;2023-09-12T01:10:31;17.90;80.80
254;DHT22;590;48.772;8.846;2023-09-12T01:12:59;17.80;80.10
254;DHT22;590;48.772;8.846;2023-09-12T01:15:27;17.70;79.70
254;DHT22;590;48.772;8.846;2023-09-12T01:17:56;17.70;80.20
254;DHT22;590;48.772;8.846;2023-09-12T01:20:28;17.70;80.60
254;DHT22;590;48.772;8.846;2023-09-12T01:23:08;17.70;82.30
254;DHT22;590;48.772;8.846;2023-09-12T01:25:51;17.70;81.90
254;DHT22;590;48.772;8.846;2023-09-12T01:28:24;17.70;81.50
254;DHT22;590;48.772;8.846;2023-09-12T01:30:55;17.70;81.40
254;DHT22;590;48.772;8.846;2023-09-12T01:33:23;17.60;81.10
254;DHT22;590;48.772;8.846;2023-09-12T01:35:51;17.50;81.60
254;DHT22;590;48.772;8.846;2023-09-12T01:38:20;17.50;82.30
254;DHT22;590;48.772;8.846;2023-09-12T01:40:49;17.60;83.00
254;DHT22;590;48.772;8.846;2023-09-12T01:43:21;17.60;83.10
254;DHT22;590;48.772;8.846;2023-09-12T01:45:54;17.60;82.70
254;DHT22;590;48.772;8.846;2023-09-12T01:48:25;17.60;82.40
254;DHT22;590;48.772;8.846;2023-09-12T01:50:55;17.50;82.00
254;DHT22;590;48.772;8.846;2023-09-12T01:53:24;17.50;82.70
254;DHT22;590;48.772;8.846;2023-09-12T01:55:53;17.40;84.00
254;DHT22;590;48.772;8.846;2023-09-12T01:58:22;17.50;84.80
254;DHT22;590;48.772;8.846;2023-09-12T02:00:51;17.50;83.70
254;DHT22;590;48.772;8.846;2023-09-12T02:03:19;17.50;84.10
254;DHT22;590;48.772;8.846;2023-09-12T02:05:47;17.50;84.20
254;DHT22;590;48.772;8.846;2023-09-12T02:08:16;17.50;84.20
254;DHT22;590;48.772;8.846;2023-09-12T02:10:44;17.50;84.00
254;DHT22;590;48.772;8.846;2023-09-12T02:13:12;17.40;83.40
254;DHT22;590;48.772;8.846;2023-09-12T02:15:40;17.40;83.50
254;DHT22;590;48.772;8.846;2023-09-12T02:18:09;17.40;84.10
254;DHT22;590;48.772;8.846;2023-09-12T02:20:38;17.40;83.10
254;DHT22;590;48.772;8.846;2023-09-12T02:23:06;17.30;82.80
254;DHT22;590;48.772;8.846;2023-09-12T02:25:34;17.20;82.30
254;DHT22;590;48.772;8.846;2023-09-12T02:28:03;17.20;82.80
254;DHT22;590;48.772;8.846;2023-09-12T02:30:31;17.10;82.90
254;DHT22;590;48.772;8.846;2023-09-12T02:32:59;17.10;82.90
254;DHT22;590;48.772;8.846;2023-09-12T02:35:29;17.10;83.40
254;DHT22;590;48.772;8.846;2023-09-12T02:37:57;17.10;84.30
254;DHT22;590;48.772;8.846;2023-09-12T02:40:25;17.10;85.70
254;DHT22;590;48.772;8.846;2023-09-12T02:42:53;17.10;84.90
254;DHT22;590;48.772;8.846;2023-09-12T02:45:21;17.20;85.70
254;DHT22;590;48.772;8.846;2023-09-12T02:47:49;17.20;85.80
254;DHT22;590;48.772;8.846;2023-09-12T02:50:17;17.10;84.40
254;DHT22;590;48.772;8.846;2023-09-12T02:52:46;17.10;84.30
254;DHT22;590;48.772;8.846;2023-09-12T02:55:15;17.10;84.10
254;DHT22;590;48.772;8.846;2023-09-12T02:57:43;17.00;82.70
254;DHT22;590;48.772;8.846;2023-09-12T03:00:12;17.00;83.80
254;DHT22;590;48.772;8.846;2023-09-12T03:02:40;17.00;85.20
254;DHT22;590;48.772;8.846;2023-09-12T03:05:08;17.00;86.20
254;DHT22;590;48.772;8.846;2023-09-12T03:07:37;17.10;86.30
254;DHT22;590;48.772;8.846;2023-09-12T03:10:07;17.00;85.30
254;DHT22;590;48.772;8.846;2023-09-12T03:12:35;17.00;85.40
254;DHT22;590;48.772;8.846;2023-09-12T03:15:05;16.90;85.70
254;DHT22;590;48.772;8.846;2023-09-12T03:17:36;16.90;86.20
254;DHT22;590;48.772;8.846;2023-09-12T03:20:05;16.90;86.30
254;DHT22;590;48.772;8.846;2023-09-12T03:22:35;16.90;86.50
254;DHT22;590;48.772;8.846;2023-09-12T03:25:07;16.90;87.60
254;DHT22;590;48.772;8.846;2023-09-12T03:27:35;16.90;88.20
254;DHT22;590;48.772;8.846;2023-09-12T03:30:04;17.00;87.80
254;DHT22;590;48.772;8.846;2023-09-12T03:32:33;17.00;88.40
254;DHT22;590;48.772;8.846;2023-09-12T03:35:01;17.00;88.40
254;DHT22;590;48.772;8.846;2023-09-12T03:37:29;17.00;88.20
254;DHT22;590;48.772;8.846;2023-09-12T03:39:57;17.00;89.00
254;DHT22;590;48.772;8.846;2023-09-12T03:42:27;17.00;88.60
254;DHT22;590;48.772;8.846;2023-09-12T03:45:09;17.10;88.50
254;DHT22;590;48.772;8.846;2023-09-12T03:47:37;17.10;88.70
254;DHT22;590;48.772;8.846;2023-09-12T03:50:06;17.10;90.10
254;DHT22;590;48.772;8.846;2023-09-12T03:52:34;17.10;90.30
254;DHT22;590;48.772;8.846;2023-09-12T03:55:02;17.10;90.10
254;DHT22;590;48.772;8.846;2023-09-12T03:57:31;17.10;89.10
254;DHT22;590;48.772;8.846;2023-09-12T03:59:59;17.00;88.80
254;DHT22;590;48.772;8.846;2023-09-12T04:02:27;17.00;88.50
254;DHT22;590;48.772;8.846;2023-09-12T04:04:56;17.00;89.60
254;DHT22;590;48.772;8.846;2023-09-12T04:07:26;17.00;89.60
254;DHT22;590;48.772;8.846;2023-09-12T04:09:54;17.00;90.00
254;DHT22;590;48.772;8.846;2023-09-12T04:12:22;17.00;89.30
254;DHT22;590;48.772;8.846;2023-09-12T04:14:52;16.90;90.10
254;DHT22;590;48.772;8.846;2023-09-12T04:17:21;16.90;90.30
254;DHT22;590;48.772;8.846;2023-09-12T04:19:49;16.90;90.60
254;DHT22;590;48.772;8.846;2023-09-12T04:22:17;16.90;90.90
254;DHT22;590;48.772;8.846;2023-09-12T04:24:49;17.00;91.00
254;DHT22;590;48.772;8.846;2023-09-12T04:27:17;17.00;91.50
254;DHT22;590;48.772;8.846;2023-09-12T04:29:45;17.00;91.50
254;DHT22;590;48.772;8.846;2023-09-12T04:32:15;17.00;91.40
254;DHT22;590;48.772;8.846;2023-09-12T04:34:50;17.10;91.60
254;DHT22;590;48.772;8.846;2023-09-12T04:37:18;17.10;91.90
254;DHT22;590;48.772;8.846;2023-09-12T04:39:46;17.20;92.00
254;DHT22;590;48.772;8.846;2023-09-12T04:42:14;17.20;91.90
254;DHT22;590;48.772;8.846;2023-09-12T04:44:42;17.30;92.10
254;DHT22;590;48.772;8.846;2023-09-12T04:47:10;17.40;92.00
254;DHT22;590;48.772;8.846;2023-09-12T04:49:40;17.40;91.70
254;DHT22;590;48.772;8.846;2023-09-12T04:52:08;17.40;91.60
254;DHT22;590;48.772;8.846;2023-09-12T04:54:36;17.40;91.10
254;DHT22;590;48.772;8.846;2023-09-12T04:57:04;17.40;91.00
254;DHT22;590;48.772;8.846;2023-09-12T04:59:32;17.30;90.90
254;DHT22;590;48.772;8.846;2023-09-12T05:02:00;17.30;91.20
254;DHT22;590;48.772;8.846;2023-09-12T05:04:29;17.30;91.40
254;DHT22;590;48.772;8.846;2023-09-12T05:06:58;17.30;91.60
254;DHT22;590;48.772;8.846;2023-09-12T05:09:26;17.40;91.70
254;DHT22;590;48.772;8.846;2023-09-12T05:11:57;17.40;91.90
254;DHT22;590;48.772;8.846;2023-09-12T05:14:25;17.50;91.90
254;DHT22;590;48.772;8.846;2023-09-12T05:16:52;17.50;92.00
254;DHT22;590;48.772;8.846;2023-09-12T05:19:21;17.60;91.70
254;DHT22;590;48.772;8.846;2023-09-12T05:21:49;17.70;92.10
254;DHT22;590;48.772;8.846;2023-09-12T05:24:19;17.80;91.80
254;DHT22;590;48.772;8.846;2023-09-12T05:26:47;18.00;91.50
254;DHT22;590;48.772;8.846;2023-09-12T05:29:16;18.10;91.20
254;DHT22;590;48.772;8.846;2023-09-12T05:31:44;18.20;90.80
254;DHT22;590;48.772;8.846;2023-09-12T05:34:12;18.30;90.00
254;DHT22;590;48.772;8.846;2023-09-12T05:36:40;18.40;89.40
254;DHT22;590;48.772;8.846;2023-09-12T05:39:08;18.50;89.30
254;DHT22;590;48.772;8.846;2023-09-12T05:41:38;18.60;89.60
254;DHT22;590;48.772;8.846;2023-09-12T05:44:06;18.60;89.00
254;DHT22;590;48.772;8.846;2023-09-12T05:46:34;18.80;88.90
254;DHT22;590;48.772;8.846;2023-09-12T05:49:02;18.90;88.70
254;DHT22;590;48.772;8.846;2023-09-12T05:51:30;19.00;88.00
254;DHT22;590;48.772;8.846;2023-09-12T05:53:58;19.10;85.80
254;DHT22;590;48.772;8.846;2023-09-12T05:56:27;19.20;84.40
254;DHT22;590;48.772;8.846;2023-09-12T05:58:57;19.20;83.00
254;DHT22;590;48.772;8.846;2023-09-12T06:01:25;19.20;82.60
254;DHT22;590;48.772;8.846;2023-09-12T06:03:53;19.20;83.10
254;DHT22;590;48.772;8.846;2023-09-12T06:06:21;19.20;83.80
254;DHT22;590;48.772;8.846;2023-09-12T06:08:50;19.30;84.80
254;DHT22;590;48.772;8.846;2023-09-12T06:11:20;19.30;84.00
254;DHT22;590;48.772;8.846;2023-09-12T06:13:48;19.30;83.90
254;DHT22;590;48.772;8.846;2023-09-12T06:16:17;19.30;83.60
254;DHT22;590;48.772;8.846;2023-09-12T06:18:45;19.30;84.00
254;DHT22;590;48.772;8.846;2023-09-12T06:21:15;19.40;84.00
254;DHT22;590;48.772;8.846;2023-09-12T06:23:43;19.40;84.00
254;DHT22;590;48.772;8.846;2023-09-12T06:26:11;19.40;83.90
254;DHT22;590;48.772;8.846;2023-09-12T06:28:40;19.50;83.90
254;DHT22;590;48.772;8.846;2023-09-12T06:31:08;19.50;83.70
254;DHT22;590;48.772;8.846;2023-09-12T06:33:39;19.60;83.60
254;DHT22;590;48.772;8.846;2023-09-12T06:36:07;19.70;83.60
254;DHT22;590;48.772;8.846;2023-09-12T06:38:35;19.80;83.00
254;DHT22;590;48.772;8.846;2023-09-12T06:41:03;19.80;82.30
254;DHT22;590;48.772;8.846;2023-09-12T06:43:31;19.90;82.90
254;DHT22;590;48.772;8.846;2023-09-12T06:45:59;20.00;82.80
254;DHT22;590;48.772;8.846;2023-09-12T06:48:27;20.00;82.50
254;DHT22;590;48.772;8.846;2023-09-12T06:50:56;20.10;82.00
254;DHT22;590;48.772;8.846;2023-09-12T06:53:24;20.30;81.40
254;DHT22;590;48.772;8.846;2023-09-12T06:55:52;20.50;79.70
254;DHT22;590;48.772;8.846;2023-09-12T06:58:20;20.60;77.50
254;DHT22;590;48.772;8.846;2023-09-12T07:00:48;20.80;76.90
254;DHT22;590;48.772;8.846;2023-09-12T07:03:17;21.00;76.50
254;DHT22;590;48.772;8.846;2023-09-12T07:05:45;21.20;73.90
254;DHT22;590;48.772;8.846;2023-09-12T07:08:14;21.40;71.80
254;DHT22;590;48.772;8.846;2023-09-12T07:10:44;21.70;70.30
254;DHT22;590;48.772;8.846;2023-09-12T07:13:12;22.10;65.40
254;DHT22;590;48.772;8.846;2023-09-12T07:15:40;22.40;63.00
254;DHT22;590;48.772;8.846;2023-09-12T07:18:08;22.80;61.10
254;DHT22;590;48.772;8.846;2023-09-12T07:20:37;22.90;56.90
254;DHT22;590;48.772;8.846;2023-09-12T07:23:05;22.80;55.90
254;DHT22;590;48.772;8.846;2023-09-12T07:25:38;22.80;55.30
254;DHT22;590;48.772;8.846;2023-09-12T07:28:06;22.60;55.40
254;DHT22;590;48.772;8.846;2023-09-12T07:30:35;22.50;57.10
254;DHT22;590;48.772;8.846;2023-09-12T07:33:04;22.50;57.60
254;DHT22;590;48.772;8.846;2023-09-12T07:35:32;22.30;59.10
254;DHT22;590;48.772;8.846;2023-09-12T07:38:00;22.30;60.40
254;DHT22;590;48.772;8.846;2023-09-12T07:40:28;22.40;61.30
254;DHT22;590;48.772;8.846;2023-09-12T07:42:58;22.60;61.40
254;DHT22;590;48.772;8.846;2023-09-12T07:45:26;22.70;60.00
254;DHT22;590;48.772;8.846;2023-09-12T07:47:54;22.70;59.90
254;DHT22;590;48.772;8.846;2023-09-12T07:50:22;22.90;60.00
254;DHT22;590;48.772;8.846;2023-09-12T07:52:50;23.10;60.20
254;DHT22;590;48.772;8.846;2023-09-12T07:55:19;23.50;57.40
254;DHT22;590;48.772;8.846;2023-09-12T07:57:47;23.90;51.70
254;DHT22;590;48.772;8.846;2023-09-12T08:00:17;24.20;50.10
254;DHT22;590;48.772;8.846;2023-09-12T08:02:45;24.50;46.40
254;DHT22;590;48.772;8.846;2023-09-12T08:05:13;24.70;45.80
254;DHT22;590;48.772;8.846;2023-09-12T08:07:41;24.80;44.80
254;DHT22;590;48.772;8.846;2023-09-12T08:10:09;25.00;44.80
254;DHT22;590;48.772;8.846;2023-09-12T08:12:37;25.20;44.50
254;DHT22;590;48.772;8.846;2023-09-12T08:15:08;25.50;41.40
254;DHT22;590;48.772;8.846;2023-09-12T08:17:38;25.90;40.30
254;DHT22;590;48.772;8.846;2023-09-12T08:20:07;26.30;36.60
254;DHT22;590;48.772;8.846;2023-09-12T08:22:37;26.60;36.50
254;DHT22;590;48.772;8.846;2023-09-12T08:25:06;26.90;30.00
254;DHT22;590;48.772;8.846;2023-09-12T08:27:34;26.90;29.50
254;DHT22;590;48.772;8.846;2023-09-12T08:30:03;27.10;29.40
254;DHT22;590;48.772;8.846;2023-09-12T08:32:31;27.10;27.40
254;DHT22;590;48.772;8.846;2023-09-12T08:35:00;27.20;27.40
254;DHT22;590;48.772;8.846;2023-09-12T08:37:30;27.50;26.20
254;DHT22;590;48.772;8.846;2023-09-12T08:39:58;27.40;25.30
254;DHT22;590;48.772;8.846;2023-09-12T08:42:26;27.50;25.30
254;DHT22;590;48.772;8.846;2023-09-12T08:44:55;27.80;25.90
254;DHT22;590;48.772;8.846;2023-09-12T08:47:25;28.00;25.90
254;DHT22;590;48.772;8.846;2023-09-12T08:49:54;28.10;22.40
254;DHT22;590;48.772;8.846;2023-09-12T08:52:25;28.20;21.50
254;DHT22;590;48.772;8.846;2023-09-12T08:54:53;28.20;21.70
254;DHT22;590;48.772;8.846;2023-09-12T08:57:22;28.30;23.00
254;DHT22;590;48.772;8.846;2023-09-12T08:59:50;28.30;21.20
254;DHT22;590;48.772;8.846;2023-09-12T09:02:20;28.40;20.40
254;DHT22;590;48.772;8.846;2023-09-12T09:04:49;28.50;20.80
254;DHT22;590;48.772;8.846;2023-09-12T09:07:20;28.70;19.70
254;DHT22;590;48.772;8.846;2023-09-12T09:09:50;28.70;19.60
254;DHT22;590;48.772;8.846;2023-09-12T09:12:20;28.60;19.70
254;DHT22;590;48.772;8.846;2023-09-12T09:14:48;28.50;19.80
254;DHT22;590;48.772;8.846;2023-09-12T09:17:16;28.40;19.60
254;DHT22;590;48.772;8.846;2023-09-12T09:20:01;28.50;21.00
254;DHT22;590;48.772;8.846;2023-09-12T09:22:32;28.70;16.30
254;DHT22;590;48.772;8.846;2023-09-12T09:25:11;28.70;13.40
254;DHT22;590;48.772;8.846;2023-09-12T09:27:40;29.00;14.90
254;DHT22;590;48.772;8.846;2023-09-12T09:30:09;29.10;14.10
254;DHT22;590;48.772;8.846;2023-09-12T09:32:38;29.20;13.70
254;DHT22;590;48.772;8.846;2023-09-12T09:35:07;29.40;13.40
254;DHT22;590;48.772;8.846;2023-09-12T09:37:37;29.60;14.70
254;DHT22;590;48.772;8.846;2023-09-12T09:40:06;29.80;14.30
254;DHT22;590;48.772;8.846;2023-09-12T09:42:37;30.00;13.10
254;DHT22;590;48.772;8.846;2023-09-12T09:45:06;30.10;12.60
254;DHT22;590;48.772;8.846;2023-09-12T09:47:34;30.20;8.50
254;DHT22;590;48.772;8.846;2023-09-12T09:50:03;30.30;7.00
254;DHT22;590;48.772;8.846;2023-09-12T09:52:31;30.40;7.20
254;DHT22;590;48.772;8.846;2023-09-12T09:54:59;30.50;7.40
254;DHT22;590;48.772;8.846;2023-09-12T09:57:27;30.50;8.70
254;DHT22;590;48.772;8.846;2023-09-12T09:59:57;30.50;9.40
254;DHT22;590;48.772;8.846;2023-09-12T10:02:26;30.60;8.80
254;DHT22;590;48.772;8.846;2023-09-12T10:04:56;30.50;7.80
254;DHT22;590;48.772;8.846;2023-09-12T10:07:28;30.50;7.40
254;DHT22;590;48.772;8.846;2023-09-12T10:09:58;30.50;6.80
254;DHT22;590;48.772;8.846;2023-09-12T10:12:30;30.70;6.10
254;DHT22;590;48.772;8.846;2023-09-12T10:15:00;30.70;6.10
254;DHT22;590;48.772;8.846;2023-09-12T10:17:33;30.60;5.60
254;DHT22;590;48.772;8.846;2023-09-12T10:20:03;30.60;5.50
254;DHT22;590;48.772;8.846;2023-09-12T10:22:39;30.60;6.00
254;DHT22;590;48.772;8.846;2023-09-12T10:25:08;30.60;6.40
254;DHT22;590;48.772;8.846;2023-09-12T10:27:37;30.70;6.60
254;DHT22;590;48.772;8.846;2023-09-12T10:30:09;30.80;6.20
254;DHT22;590;48.772;8.846;2023-09-12T10:32:40;30.90;6.00
254;DHT22;590;48.772;8.846;2023-09-12T10:35:09;30.90;6.60
254;DHT22;590;48.772;8.846;2023-09-12T10:37:39;31.00;6.10
254;DHT22;590;48.772;8.846;2023-09-12T10:40:10;31.10;5.70
254;DHT22;590;48.772;8.846;2023-09-12T10:42:39;31.10;4.90
254;DHT22;590;48.772;8.846;2023-09-12T10:45:10;31.10;4.40
254;DHT22;590;48.772;8.846;2023-09-12T10:47:38;31.00;4.80
254;DHT22;590;48.772;8.846;2023-09-12T10:50:07;31.10;4.30
254;DHT22;590;48.772;8.846;2023-09-12T10:52:35;31.30;4.60
254;DHT22;590;48.772;8.846;2023-09-12T10:55:07;31.30;5.10
254;DHT22;590;48.772;8.846;2023-09-12T10:58:02;31.40;4.20
254;DHT22;590;48.772;8.846;2023-09-12T11:00:32;31.50;2.90
254;DHT22;590;48.772;8.846;2023-09-12T11:03:37;31.50;4.30
254;DHT22;590;48.772;8.846;2023-09-12T11:06:20;31.60;3.80
254;DHT22;590;48.772;8.846;2023-09-12T11:09:16;31.70;4.40
254;DHT22;590;48.772;8.846;2023-09-12T11:11:47;31.80;2.50
254;DHT22;590;48.772;8.846;2023-09-12T11:14:16;31.80;3.90
254;DHT22;590;48.772;8.846;2023-09-12T11:17:21;31.80;3.80
254;DHT22;590;48.772;8.846;2023-09-12T11:19:51;31.90;2.80
254;DHT22;590;48.772;8.846;2023-09-12T11:22:24;32.00;2.90
254;DHT22;590;48.772;8.846;2023-09-12T11:24:52;32.00;3.30
254;DHT22;590;48.772;8.846;2023-09-12T11:27:25;32.00;3.00
254;DHT22;590;48.772;8.846;2023-09-12T11:30:04;32.10;1.10
254;DHT22;590;48.772;8.846;2023-09-12T11:32:36;32.20;2.40
254;DHT22;590;48.772;8.846;2023-09-12T11:35:05;32.20;1.90
254;DHT22;590;48.772;8.846;2023-09-12T11:37:34;32.30;2.30
254;DHT22;590;48.772;8.846;2023-09-12T11:40:16;32.40;1.00
254;DHT22;590;48.772;8.846;2023-09-12T11:42:45;32.30;1.00
254;DHT22;590;48.772;8.846;2023-09-12T11:45:14;32.20;1.10
254;DHT22;590;48.772;8.846;2023-09-12T11:47:45;32.20;2.00
254;DHT22;590;48.772;8.846;2023-09-12T11:50:27;32.30;3.10
254;DHT22;590;48.772;8.846;2023-09-12T11:53:00;32.30;4.70
254;DHT22;590;48.772;8.846;2023-09-12T11:55:31;32.10;4.90
254;DHT22;590;48.772;8.846;2023-09-12T11:57:59;31.80;5.20
254;DHT22;590;48.772;8.846;2023-09-12T12:00:27;31.50;6.30
254;DHT22;590;48.772;8.846;2023-09-12T12:02:57;31.10;7.30
254;DHT22;590;48.772;8.846;2023-09-12T12:05:26;30.90;8.60
254;DHT22;590;48.772;8.846;2023-09-12T12:07:54;30.70;9.20
254;DHT22;590;48.772;8.846;2023-09-12T12:10:42;30.40;8.90
254;DHT22;590;48.772;8.846;2023-09-12T12:13:11;30.20;9.70
254;DHT22;590;48.772;8.846;2023-09-12T12:15:39;30.10;10.70
254;DHT22;590;48.772;8.846;2023-09-12T12:18:08;30.10;10.30
254;DHT22;590;48.772;8.846;2023-09-12T12:20:37;30.00;11.50
254;DHT22;590;48.772;8.846;2023-09-12T12:23:05;30.00;11.80
254;DHT22;590;48.772;8.846;2023-09-12T12:25:33;30.10;11.50
254;DHT22;590;48.772;8.846;2023-09-12T12:28:03;30.20;13.20
254;DHT22;590;48.772;8.846;2023-09-12T12:30:32;30.40;12.50
254;DHT22;590;48.772;8.846;2023-09-12T12:33:06;30.30;13.30
254;DHT22;590;48.772;8.846;2023-09-12T12:36:00;30.20;14.20
254;DHT22;590;48.772;8.846;2023-09-12T12:38:33;30.00;15.40
254;DHT22;590;48.772;8.846;2023-09-12T12:41:03;29.80;16.60
254;DHT22;590;48.772;8.846;2023-09-12T12:43:31;29.80;16.70
254;DHT22;590;48.772;8.846;2023-09-12T12:45:59;29.70;15.80
254;DHT22;590;48.772;8.846;2023-09-12T12:48:31;29.60;16.20
254;DHT22;590;48.772;8.846;2023-09-12T12:51:12;29.60;15.90
254;DHT22;590;48.772;8.846;2023-09-12T12:53:45;29.50;16.10
254;DHT22;590;48.772;8.846;2023-09-12T12:56:21;29.60;16.90
254;DHT22;590;48.772;8.846;2023-09-12T12:58:51;29.70;14.20
254;DHT22;590;48.772;8.846;2023-09-12T13:01:20;29.70;14.10
254;DHT22;590;48.772;8.846;2023-09-12T13:03:48;29.90;11.80
254;DHT22;590;48.772;8.846;2023-09-12T13:06:19;30.00;10.80
254;DHT22;590;48.772;8.846;2023-09-12T13:08:48;30.10;10.20
254;DHT22;590;48.772;8.846;2023-09-12T13:11:17;30.00;9.90
254;DHT22;590;48.772;8.846;2023-09-12T13:13:46;29.90;9.10
254;DHT22;590;48.772;8.846;2023-09-12T13:16:15;29.80;8.50
254;DHT22;590;48.772;8.846;2023-09-12T13:18:43;29.80;9.90
254;DHT22;590;48.772;8.846;2023-09-12T13:21:12;29.70;9.10
254;DHT22;590;48.772;8.846;2023-09-12T13:23:41;29.60;10.00
254;DHT22;590;48.772;8.846;2023-09-12T13:26:10;29.60;10.10
254;DHT22;590;48.772;8.846;2023-09-12T13:28:38;29.70;10.30
254;DHT22;590;48.772;8.846;2023-09-12T13:31:07;29.80;10.00
254;DHT22;590;48.772;8.846;2023-09-12T13:33:35;29.90;9.10
254;DHT22;590;48.772;8.846;2023-09-12T13:36:04;30.00;9.20
254;DHT22;590;48.772;8.846;2023-09-12T13:38:32;30.00;9.00
254;DHT22;590;48.772;8.846;2023-09-12T13:41:01;30.00;7.70
254;DHT22;590;48.772;8.846;2023-09-12T13:43:30;30.00;8.40
254;DHT22;590;48.772;8.846;2023-09-12T13:45:58;30.00;7.60
254;DHT22;590;48.772;8.846;2023-09-12T13:48:26;30.00;7.40
254;DHT22;590;48.772;8.846;2023-09-12T13:50:54;30.00;7.10
254;DHT22;590;48.772;8.846;2023-09-12T13:53:22;30.00;7.50
254;DHT22;590;48.772;8.846;2023-09-12T13:55:50;30.00;7.60
254;DHT22;590;48.772;8.846;2023-09-12T13:58:30;30.10;7.40
254;DHT22;590;48.772;8.846;2023-09-12T14:01:11;30.20;6.90
254;DHT22;590;48.772;8.846;2023-09-12T14:03:54;30.10;6.60
254;DHT22;590;48.772;8.846;2023-09-12T14:06:23;30.10;7.00
254;DHT22;590;48.772;8.846;2023-09-12T14:08:51;30.10;7.00
254;DHT22;590;48.772;8.846;2023-09-12T14:11:20;30.10;7.80
254;DHT22;590;48.772;8.846;2023-09-12T14:14:01;30.10;6.80
254;DHT22;590;48.772;8.846;2023-09-12T14:16:32;30.10;7.30
254;DHT22;590;48.772;8.846;2023-09-12T14:19:00;30.10;7.20
254;DHT22;590;48.772;8.846;2023-09-12T14:21:30;30.10;6.70
254;DHT22;590;48.772;8.846;2023-09-12T14:23:58;30.10;6.60
254;DHT22;590;48.772;8.846;2023-09-12T14:26:27;30.10;6.20
254;DHT22;590;48.772;8.846;2023-09-12T14:28:56;30.00;6.10
254;DHT22;590;48.772;8.846;2023-09-12T14:31:27;29.90;6.00
254;DHT22;590;48.772;8.846;2023-09-12T14:33:55;29.90;5.60
254;DHT22;590;48.772;8.846;2023-09-12T14:36:24;29.90;5.60
254;DHT22;590;48.772;8.846;2023-09-12T14:38:52;29.90;4.90
254;DHT22;590;48.772;8.846;2023-09-12T14:41:20;29.90;5.50
254;DHT22;590;48.772;8.846;2023-09-12T14:43:48;30.00;5.10
254;DHT22;590;48.772;8.846;2023-09-12T14:46:17;30.00;6.20
254;DHT22;590;48.772;8.846;2023-09-12T14:48:46;30.00;5.30
254;DHT22;590;48.772;8.846;2023-09-12T14:51:27;30.10;5.70
254;DHT22;590;48.772;8.846;2023-09-12T14:54:01;30.20;5.60
254;DHT22;590;48.772;8.846;2023-09-12T14:56:29;30.40;4.30
254;DHT22;590;48.772;8.846;2023-09-12T14:58:57;30.30;4.80
254;DHT22;590;48.772;8.846;2023-09-12T15:01:25;30.30;3.90
254;DHT22;590;48.772;8.846;2023-09-12T15:03:55;30.30;4.30
254;DHT22;590;48.772;8.846;2023-09-12T15:06:23;30.40;4.20
254;DHT22;590;48.772;8.846;2023-09-12T15:08:52;30.40;5.50
254;DHT22;590;48.772;8.846;2023-09-12T15:11:20;30.40;4.00
254;DHT22;590;48.772;8.846;2023-09-12T15:13:48;30.40;3.50
254;DHT22;590;48.772;8.846;2023-09-12T15:16:17;30.40;3.70
254;DHT22;590;48.772;8.846;2023-09-12T15:18:45;30.50;3.90
254;DHT22;590;48.772;8.846;2023-09-12T15:21:15;30.50;4.40
254;DHT22;590;48.772;8.846;2023-09-12T15:23:43;30.60;4.00
254;DHT22;590;48.772;8.846;2023-09-12T15:26:12;30.60;2.90
254;DHT22;590;48.772;8.846;2023-09-12T15:28:40;30.50;2.80
254;DHT22;590;48.772;8.846;2023-09-12T15:31:08;30.50;3.40
254;DHT22;590;48.772;8.846;2023-09-12T15:33:36;30.50;3.70
254;DHT22;590;48.772;8.846;2023-09-12T15:36:04;30.50;4.00
254;DHT22;590;48.772;8.846;2023-09-12T15:38:34;30.50;3.00
254;DHT22;590;48.772;8.846;2023-09-12T15:41:02;30.40;2.90
254;DHT22;590;48.772;8.846;2023-09-12T15:43:34;30.40;3.10
254;DHT22;590;48.772;8.846;2023-09-12T15:46:03;30.40;3.00
254;DHT22;590;48.772;8.846;2023-09-12T15:48:31;30.40;3.00
254;DHT22;590;48.772;8.846;2023-09-12T15:50:59;30.50;3.30
254;DHT22;590;48.772;8.846;2023-09-12T15:53:27;30.50;3.20
254;DHT22;590;48.772;8.846;2023-09-12T15:55:56;30.50;2.70
254;DHT22;590;48.772;8.846;2023-09-12T15:58:24;30.50;2.50
254;DHT22;590;48.772;8.846;2023-09-12T16:00:55;30.60;2.70
254;DHT22;590;48.772;8.846;2023-09-12T16:03:26;30.60;1.30
254;DHT22;590;48.772;8.846;2023-09-12T16:05:55;30.60;1.60
254;DHT22;590;48.772;8.846;2023-09-12T16:08:23;30.60;2.20
254;DHT22;590;48.772;8.846;2023-09-12T16:10:51;30.60;2.70
254;DHT22;590;48.772;8.846;2023-09-12T16:13:21;30.60;2.70
254;DHT22;590;48.772;8.846;2023-09-12T16:15:49;30.60;3.20
254;DHT22;590;48.772;8.846;2023-09-12T16:18:17;30.60;3.30
254;DHT22;590;48.772;8.846;2023-09-12T16:20:46;30.60;3.50
254;DHT22;590;48.772;8.846;2023-09-12T16:23:14;30.60;3.80
254;DHT22;590;48.772;8.846;2023-09-12T16:25:42;30.50;5.00
254;DHT22;590;48.772;8.846;2023-09-12T16:28:11;30.50;3.30
254;DHT22;590;48.772;8.846;2023-09-12T16:30:41;30.50;3.40
254;DHT22;590;48.772;8.846;2023-09-12T16:33:10;30.40;3.80
254;DHT22;590;48.772;8.846;2023-09-12T16:35:39;30.40;4.30
254;DHT22;590;48.772;8.846;2023-09-12T16:38:07;30.20;4.40
254;DHT22;590;48.772;8.846;2023-09-12T16:40:36;30.10;4.70
254;DHT22;590;48.772;8.846;2023-09-12T16:43:06;30.10;5.60
254;DHT22;590;48.772;8.846;2023-09-12T16:45:34;30.00;5.50
254;DHT22;590;48.772;8.846;2023-09-12T16:48:04;30.00;6.20
254;DHT22;590;48.772;8.846;2023-09-12T16:50:33;29.90;6.40
254;DHT22;590;48.772;8.846;2023-09-12T16:53:01;29.80;6.00
254;DHT22;590;48.772;8.846;2023-09-12T16:55:31;29.70;6.60
254;DHT22;590;48.772;8.846;2023-09-12T16:57:59;29.70;7.30